sensor_id;sensor_type;location;lat;lon;timestamp;pressure;altitude;pressure_sealevel;temperature;humidity
25232;BME280;13176;51.140;6.290;2023-05-03T00:01:12;102076.97;;;12.73;54.33
25232;BME280;13176;51.140;6.290;2023-05-03T00:03:39;101988.81;;;12.19;54.66
25232;BME280;13176;51.140;6.290;2023-05-03T00:06:10;102084.81;;;12.70;55.02
25232;BME280;13176;51.140;6.290;2023-05-03T00:08:36;102054.25;;;12.43;55.20
25232;BME280;13176;51.140;6.290;2023-05-03T00:11:03;102003.63;;;12.08;55.05
25232;BME280;13176;51.140;6.290;2023-05-03T00:13:29;101991.41;;;11.86;56.37
25232;BME280;13176;51.140;6.290;2023-05-03T00:15:55;101978.28;;;11.69;55.97
25232;BME280;13176;51.140;6.290;2023-05-03T00:18:22;102076.91;;;12.17;56.57
25232;BME280;13176;51.140;6.290;2023-05-03T00:20:49;102085.59;;;12.10;56.43
25232;BME280;13176;51.140;6.290;2023-05-03T00:23:16;102086.47;;;12.09;56.85
25232;BME280;13176;51.140;6.290;2023-05-03T00:25:42;102078.63;;;12.00;56.75
25232;BME280;13176;51.140;6.290;2023-05-03T00:28:09;102107.44;;;12.22;56.71
25232;BME280;13176;51.140;6.290;2023-05-03T00:30:36;102082.97;;;12.02;57.08
25232;BME280;13176;51.140;6.290;2023-05-03T00:33:02;102040.16;;;11.75;56.70
25232;BME280;13176;51.140;6.290;2023-05-03T00:35:29;102065.50;;;11.89;57.15
25232;BME280;13176;51.140;6.290;2023-05-03T00:37:55;102073.34;;;11.85;56.35
25232;BME280;13176;51.140;6.290;2023-05-03T00:40:21;101989.44;;;11.31;57.46
25232;BME280;13176;51.140;6.290;2023-05-03T00:42:48;102066.31;;;11.72;58.00
25232;BME280;13176;51.140;6.290;2023-05-03T00:45:14;102097.72;;;11.78;57.98
25232;BME280;13176;51.140;6.290;2023-05-03T00:47:41;102094.22;;;11.76;57.42
25232;BME280;13176;51.140;6.290;2023-05-03T00:50:08;102079.34;;;11.61;57.69
25232;BME280;13176;51.140;6.290;2023-05-03T00:52:37;102092.44;;;11.69;57.55
25232;BME280;13176;51.140;6.290;2023-05-03T00:55:05;102071.41;;;11.45;57.91
25232;BME280;13176;51.140;6.290;2023-05-03T00:57:32;102024.22;;;11.18;57.92
25232;BME280;13176;51.140;6.290;2023-05-03T00:59:58;102057.47;;;11.44;58.18
25232;BME280;13176;51.140;6.290;2023-05-03T01:02:26;102088.94;;;11.67;58.25
25232;BME280;13176;51.140;6.290;2023-05-03T01:04:54;102094.16;;;11.67;58.39
25232;BME280;13176;51.140;6.290;2023-05-03T01:07:41;102094.19;;;11.61;58.62
25232;BME280;13176;51.140;6.290;2023-05-03T01:10:41;102047.81;;;11.36;58.78
25232;BME280;13176;51.140;6.290;2023-05-03T01:13:29;102069.66;;;11.44;59.09
25232;BME280;13176;51.140;6.290;2023-05-03T01:18:49;102085.28;;;11.35;59.55
25232;BME280;13176;51.140;6.290;2023-05-03T01:21:20;102062.56;;;11.22;59.63
25232;BME280;13176;51.140;6.290;2023-05-03T01:23:56;102074.75;;;11.17;58.85
25232;BME280;13176;51.140;6.290;2023-05-03T01:26:26;102066.72;;;10.93;59.55
25232;BME280;13176;51.140;6.290;2023-05-03T01:28:53;102072.94;;;11.10;59.95
25232;BME280;13176;51.140;6.290;2023-05-03T01:31:43;102098.28;;;11.20;59.45
25232;BME280;13176;51.140;6.290;2023-05-03T01:34:28;102065.94;;;11.03;60.12
25232;BME280;13176;51.140;6.290;2023-05-03T01:36:59;102094.78;;;11.18;59.97
25232;BME280;13176;51.140;6.290;2023-05-03T01:39:34;101961.78;;;10.21;60.02
25232;BME280;13176;51.140;6.290;2023-05-03T01:42:02;101967.94;;;10.26;60.24
25232;BME280;13176;51.140;6.290;2023-05-03T01:44:30;102077.09;;;10.81;60.84
25232;BME280;13176;51.140;6.290;2023-05-03T01:46:57;102039.50;;;10.58;60.10
25232;BME280;13176;51.140;6.290;2023-05-03T01:49:24;102093.59;;;10.73;60.53
25232;BME280;13176;51.140;6.290;2023-05-03T01:51:50;102072.56;;;10.59;60.12
25232;BME280;13176;51.140;6.290;2023-05-03T01:54:16;102110.16;;;10.81;60.40
25232;BME280;13176;51.140;6.290;2023-05-03T01:56:43;102072.53;;;10.53;60.80
25232;BME280;13176;51.140;6.290;2023-05-03T01:59:10;102087.34;;;10.57;60.59
25232;BME280;13176;51.140;6.290;2023-05-03T02:01:36;102037.50;;;10.27;60.76
25232;BME280;13176;51.140;6.290;2023-05-03T02:04:03;102081.13;;;10.43;60.78
25232;BME280;13176;51.140;6.290;2023-05-03T02:06:29;102042.56;;;10.10;59.79
25232;BME280;13176;51.140;6.290;2023-05-03T02:08:56;102103.69;;;10.38;60.86
25232;BME280;13176;51.140;6.290;2023-05-03T02:11:23;102108.81;;;10.29;61.16
25232;BME280;13176;51.140;6.290;2023-05-03T02:13:49;102122.06;;;10.47;60.93
25232;BME280;13176;51.140;6.290;2023-05-03T02:16:17;102145.59;;;10.56;61.46
25232;BME280;13176;51.140;6.290;2023-05-03T02:18:43;102145.66;;;10.62;61.04
25232;BME280;13176;51.140;6.290;2023-05-03T02:21:10;102086.16;;;10.25;60.85
25232;BME280;13176;51.140;6.290;2023-05-03T02:23:36;102086.19;;;10.27;61.05
25232;BME280;13176;51.140;6.290;2023-05-03T02:26:02;102126.38;;;10.45;61.82
25232;BME280;13176;51.140;6.290;2023-05-03T02:28:29;102094.97;;;10.36;61.02
25232;BME280;13176;51.140;6.290;2023-05-03T02:30:55;101968.09;;;9.57;60.10
25232;BME280;13176;51.140;6.290;2023-05-03T02:33:21;102096.66;;;10.31;61.29
25232;BME280;13176;51.140;6.290;2023-05-03T02:35:48;102096.63;;;10.28;60.64
25232;BME280;13176;51.140;6.290;2023-05-03T02:38:14;102102.75;;;10.29;60.69
25232;BME280;13176;51.140;6.290;2023-05-03T02:40:41;102114.03;;;10.29;60.76
25232;BME280;13176;51.140;6.290;2023-05-03T02:43:08;102054.75;;;10.11;60.54
25232;BME280;13176;51.140;6.290;2023-05-03T02:45:34;102018.03;;;9.96;60.71
25232;BME280;13176;51.140;6.290;2023-05-03T02:48:02;102116.03;;;10.54;60.69
25232;BME280;13176;51.140;6.290;2023-05-03T02:50:28;102084.53;;;10.36;60.01
25232;BME280;13176;51.140;6.290;2023-05-03T02:52:55;102116.09;;;10.63;60.72
25232;BME280;13176;51.140;6.290;2023-05-03T02:55:21;102086.41;;;10.49;60.66
25232;BME280;13176;51.140;6.290;2023-05-03T02:57:48;102105.75;;;10.72;60.46
25232;BME280;13176;51.140;6.290;2023-05-03T03:00:14;102107.44;;;10.67;60.71
25232;BME280;13176;51.140;6.290;2023-05-03T03:02:42;102090.97;;;10.73;60.65
25232;BME280;13176;51.140;6.290;2023-05-03T03:05:08;102097.94;;;10.75;60.51
25232;BME280;13176;51.140;6.290;2023-05-03T03:07:36;102105.81;;;10.81;60.16
25232;BME280;13176;51.140;6.290;2023-05-03T03:10:03;102086.66;;;10.79;61.17
25232;BME280;13176;51.140;6.290;2023-05-03T03:12:30;102074.38;;;10.65;61.02
25232;BME280;13176;51.140;6.290;2023-05-03T03:14:56;101980.06;;;10.24;60.80
25232;BME280;13176;51.140;6.290;2023-05-03T03:17:22;101940.72;;;9.96;61.05
25232;BME280;13176;51.140;6.290;2023-05-03T03:19:49;101990.53;;;10.27;60.74
25232;BME280;13176;51.140;6.290;2023-05-03T03:22:15;102064.81;;;10.68;61.04
25232;BME280;13176;51.140;6.290;2023-05-03T03:24:42;101957.44;;;10.20;60.65
25232;BME280;13176;51.140;6.290;2023-05-03T03:27:08;101973.97;;;10.22;60.81
25232;BME280;13176;51.140;6.290;2023-05-03T03:29:34;102044.72;;;10.58;60.90
25232;BME280;13176;51.140;6.290;2023-05-03T03:32:01;102037.75;;;10.57;60.83
25232;BME280;13176;51.140;6.290;2023-05-03T03:34:27;102023.84;;;10.55;60.14
25232;BME280;13176;51.140;6.290;2023-05-03T03:36:55;102044.72;;;10.55;61.63
25232;BME280;13176;51.140;6.290;2023-05-03T03:39:21;101999.28;;;10.32;61.93
25232;BME280;13176;51.140;6.290;2023-05-03T03:41:47;102035.06;;;10.45;61.47
25232;BME280;13176;51.140;6.290;2023-05-03T03:44:14;102025.41;;;10.35;62.09
25232;BME280;13176;51.140;6.290;2023-05-03T03:46:40;102038.44;;;10.34;63.06
25232;BME280;13176;51.140;6.290;2023-05-03T03:49:07;101898.56;;;9.48;62.64
25232;BME280;13176;51.140;6.290;2023-05-03T03:51:33;102053.28;;;10.42;63.51
25232;BME280;13176;51.140;6.290;2023-05-03T03:54:00;102015.81;;;10.33;62.02
25232;BME280;13176;51.140;6.290;2023-05-03T03:56:26;102024.50;;;10.33;61.99
25232;BME280;13176;51.140;6.290;2023-05-03T03:58:52;102042.84;;;10.42;61.42
25232;BME280;13176;51.140;6.290;2023-05-03T04:01:19;102037.53;;;10.29;61.83
25232;BME280;13176;51.140;6.290;2023-05-03T04:03:45;101998.84;;;9.91;62.70
25232;BME280;13176;51.140;6.290;2023-05-03T04:06:15;101973.50;;;9.72;62.99
25232;BME280;13176;51.140;6.290;2023-05-03T04:08:50;102041.47;;;9.93;63.49
25232;BME280;13176;51.140;6.290;2023-05-03T04:11:16;102017.81;;;9.75;63.28
25232;BME280;13176;51.140;6.290;2023-05-03T04:13:42;102050.94;;;9.85;63.31
25232;BME280;13176;51.140;6.290;2023-05-03T04:16:09;102024.75;;;9.73;63.46
25232;BME280;13176;51.140;6.290;2023-05-03T04:18:35;102085.00;;;9.98;63.80
25232;BME280;13176;51.140;6.290;2023-05-03T04:21:02;101992.28;;;9.47;63.10
25232;BME280;13176;51.140;6.290;2023-05-03T04:23:28;102061.34;;;9.83;63.21
25232;BME280;13176;51.140;6.290;2023-05-03T04:25:54;102029.75;;;9.55;63.44
25232;BME280;13176;51.140;6.290;2023-05-03T04:28:22;101938.94;;;9.12;63.64
25232;BME280;13176;51.140;6.290;2023-05-03T04:30:48;101974.69;;;9.23;63.93
25232;BME280;13176;51.140;6.290;2023-05-03T04:33:15;102011.38;;;9.44;64.53
25232;BME280;13176;51.140;6.290;2023-05-03T04:35:42;102081.19;;;9.72;63.56
25232;BME280;13176;51.140;6.290;2023-05-03T04:38:08;102071.75;;;9.80;64.50
25232;BME280;13176;51.140;6.290;2023-05-03T04:40:35;102024.59;;;9.59;64.16
25232;BME280;13176;51.140;6.290;2023-05-03T04:43:02;102049.13;;;9.78;64.24
25232;BME280;13176;51.140;6.290;2023-05-03T04:45:28;101992.28;;;9.45;64.07
25232;BME280;13176;51.140;6.290;2023-05-03T04:47:55;101923.38;;;9.18;63.76
25232;BME280;13176;51.140;6.290;2023-05-03T04:50:21;101978.53;;;9.55;64.19
25232;BME280;13176;51.140;6.290;2023-05-03T04:52:48;102051.16;;;10.03;64.03
25232;BME280;13176;51.140;6.290;2023-05-03T04:55:14;102074.88;;;10.25;63.27
25232;BME280;13176;51.140;6.290;2023-05-03T04:57:41;102100.25;;;10.42;63.67
25232;BME280;13176;51.140;6.290;2023-05-03T05:00:08;102074.91;;;10.28;63.46
25232;BME280;13176;51.140;6.290;2023-05-03T05:02:37;102065.22;;;10.17;63.45
25232;BME280;13176;51.140;6.290;2023-05-03T05:05:04;102084.56;;;10.39;63.51
25232;BME280;13176;51.140;6.290;2023-05-03T05:07:30;102056.56;;;10.20;62.67
25232;BME280;13176;51.140;6.290;2023-05-03T05:09:57;102093.31;;;10.44;64.24
25232;BME280;13176;51.140;6.290;2023-05-03T05:12:23;102023.41;;;10.09;63.91
25232;BME280;13176;51.140;6.290;2023-05-03T05:14:50;102012.94;;;10.05;63.07
25232;BME280;13176;51.140;6.290;2023-05-03T05:17:16;102082.09;;;10.53;63.25
25232;BME280;13176;51.140;6.290;2023-05-03T05:19:43;102009.50;;;10.09;63.76
25232;BME280;13176;51.140;6.290;2023-05-03T05:22:09;102103.06;;;10.63;64.47
25232;BME280;13176;51.140;6.290;2023-05-03T05:24:35;102097.84;;;10.66;63.28
25232;BME280;13176;51.140;6.290;2023-05-03T05:27:02;102116.16;;;10.69;63.33
25232;BME280;13176;51.140;6.290;2023-05-03T05:29:28;101950.06;;;9.75;63.16
25232;BME280;13176;51.140;6.290;2023-05-03T05:31:55;102111.06;;;10.84;62.94
25232;BME280;13176;51.140;6.290;2023-05-03T05:34:21;102135.59;;;11.04;62.06
25232;BME280;13176;51.140;6.290;2023-05-03T05:36:48;102102.34;;;10.82;62.30
25232;BME280;13176;51.140;6.290;2023-05-03T05:39:15;102136.47;;;11.05;62.28
25232;BME280;13176;51.140;6.290;2023-05-03T05:41:42;102145.19;;;11.07;62.43
25232;BME280;13176;51.140;6.290;2023-05-03T05:44:09;102126.84;;;10.99;62.45
25232;BME280;13176;51.140;6.290;2023-05-03T05:46:35;102093.72;;;10.89;62.92
25232;BME280;13176;51.140;6.290;2023-05-03T05:49:01;102103.28;;;10.90;63.26
25232;BME280;13176;51.140;6.290;2023-05-03T05:51:28;102091.13;;;10.95;62.64
25232;BME280;13176;51.140;6.290;2023-05-03T05:53:55;102127.78;;;11.12;63.34
25232;BME280;13176;51.140;6.290;2023-05-03T05:56:22;102095.53;;;11.02;62.91
25232;BME280;13176;51.140;6.290;2023-05-03T05:58:48;102096.47;;;11.15;62.88
25232;BME280;13176;51.140;6.290;2023-05-03T06:01:15;102112.22;;;11.24;63.03
25232;BME280;13176;51.140;6.290;2023-05-03T06:03:41;102104.41;;;11.25;63.53
25232;BME280;13176;51.140;6.290;2023-05-03T06:06:07;102141.13;;;11.52;63.27
25232;BME280;13176;51.140;6.290;2023-05-03T06:08:34;102125.50;;;11.55;61.82
25232;BME280;13176;51.140;6.290;2023-05-03T06:11:01;102124.63;;;11.54;62.46
25232;BME280;13176;51.140;6.290;2023-05-03T06:13:27;102134.31;;;11.75;61.45
25232;BME280;13176;51.140;6.290;2023-05-03T06:15:54;102110.69;;;11.55;62.21
25232;BME280;13176;51.140;6.290;2023-05-03T06:18:20;102131.72;;;11.85;61.93
25232;BME280;13176;51.140;6.290;2023-05-03T06:20:49;102124.72;;;11.77;61.59
25232;BME280;13176;51.140;6.290;2023-05-03T06:23:16;102087.22;;;11.69;61.83
25232;BME280;13176;51.140;6.290;2023-05-03T06:25:45;102067.03;;;11.39;62.02
25232;BME280;13176;51.140;6.290;2023-05-03T06:28:12;102136.16;;;11.94;60.81
25232;BME280;13176;51.140;6.290;2023-05-03T06:30:38;102135.28;;;11.95;61.73
25232;BME280;13176;51.140;6.290;2023-05-03T06:33:04;102128.34;;;12.07;60.99
25232;BME280;13176;51.140;6.290;2023-05-03T06:35:32;102099.53;;;12.06;60.61
25232;BME280;13176;51.140;6.290;2023-05-03T06:37:58;102132.72;;;12.16;60.80
25232;BME280;13176;51.140;6.290;2023-05-03T06:40:24;102112.63;;;12.03;60.41
25232;BME280;13176;51.140;6.290;2023-05-03T06:42:52;102129.28;;;12.29;60.38
25232;BME280;13176;51.140;6.290;2023-05-03T06:45:18;102135.41;;;12.34;59.79
25232;BME280;13176;51.140;6.290;2023-05-03T06:47:45;102116.19;;;12.27;60.07
25232;BME280;13176;51.140;6.290;2023-05-03T06:50:11;102146.78;;;12.53;59.01
25232;BME280;13176;51.140;6.290;2023-05-03T06:52:39;102080.41;;;12.22;59.63
25232;BME280;13176;51.140;6.290;2023-05-03T06:55:06;102047.25;;;12.15;57.95
25232;BME280;13176;51.140;6.290;2023-05-03T06:57:32;102143.31;;;12.69;57.11
25232;BME280;13176;51.140;6.290;2023-05-03T06:59:59;102124.97;;;12.56;57.92
25232;BME280;13176;51.140;6.290;2023-05-03T07:02:25;102111.88;;;12.57;56.87
25232;BME280;13176;51.140;6.290;2023-05-03T07:04:52;102125.84;;;12.68;56.70
25232;BME280;13176;51.140;6.290;2023-05-03T07:07:19;102132.81;;;12.87;56.05
25232;BME280;13176;51.140;6.290;2023-05-03T07:09:45;102080.44;;;12.57;55.93
25232;BME280;13176;51.140;6.290;2023-05-03T07:12:12;102019.34;;;12.29;55.81
25232;BME280;13176;51.140;6.290;2023-05-03T07:14:38;102027.19;;;12.41;55.52
25232;BME280;13176;51.140;6.290;2023-05-03T07:17:05;102103.16;;;13.03;56.15
25232;BME280;13176;51.140;6.290;2023-05-03T07:19:32;102120.59;;;13.13;56.10
25232;BME280;13176;51.140;6.290;2023-05-03T07:21:59;102104.91;;;13.04;55.06
25232;BME280;13176;51.140;6.290;2023-05-03T07:24:28;102108.38;;;13.15;54.87
25232;BME280;13176;51.140;6.290;2023-05-03T07:26:56;102122.34;;;13.32;54.18
25232;BME280;13176;51.140;6.290;2023-05-03T07:29:23;102117.09;;;13.29;56.23
25232;BME280;13176;51.140;6.290;2023-05-03T07:31:49;102119.69;;;13.31;56.25
25232;BME280;13176;51.140;6.290;2023-05-03T07:34:18;102048.13;;;13.03;55.90
25232;BME280;13176;51.140;6.290;2023-05-03T07:36:45;102096.97;;;13.40;55.11
25232;BME280;13176;51.140;6.290;2023-05-03T07:39:11;102087.38;;;13.42;54.11
25232;BME280;13176;51.140;6.290;2023-05-03T07:41:37;102104.75;;;13.61;54.70
25232;BME280;13176;51.140;6.290;2023-05-03T07:44:04;102048.06;;;13.27;54.14
25232;BME280;13176;51.140;6.290;2023-05-03T07:46:30;102008.75;;;13.18;53.79
25232;BME280;13176;51.140;6.290;2023-05-03T07:49:01;102115.19;;;13.82;53.20
25232;BME280;13176;51.140;6.290;2023-05-03T07:51:29;102030.53;;;13.44;53.61
25232;BME280;13176;51.140;6.290;2023-05-03T07:53:56;102087.16;;;13.90;53.59
25232;BME280;13176;51.140;6.290;2023-05-03T07:56:23;102068.78;;;13.87;54.03
25232;BME280;13176;51.140;6.290;2023-05-03T07:58:52;102081.84;;;13.99;51.42
25232;BME280;13176;51.140;6.290;2023-05-03T08:01:34;102087.03;;;14.09;51.88
25232;BME280;13176;51.140;6.290;2023-05-03T08:04:00;102072.19;;;14.02;51.61
25232;BME280;13176;51.140;6.290;2023-05-03T08:06:27;102098.41;;;14.20;51.75
25232;BME280;13176;51.140;6.290;2023-05-03T08:08:54;102051.16;;;14.14;52.25
25232;BME280;13176;51.140;6.290;2023-05-03T08:11:20;102106.09;;;14.49;52.53
25232;BME280;13176;51.140;6.290;2023-05-03T08:13:46;102055.47;;;14.23;52.47
25232;BME280;13176;51.140;6.290;2023-05-03T08:16:13;102057.16;;;14.33;52.32
25232;BME280;13176;51.140;6.290;2023-05-03T08:18:39;102081.53;;;14.56;51.51
25232;BME280;13176;51.140;6.290;2023-05-03T08:21:06;102090.16;;;14.70;50.18
25232;BME280;13176;51.140;6.290;2023-05-03T08:23:34;102084.88;;;14.73;48.86
25232;BME280;13176;51.140;6.290;2023-05-03T08:26:01;102078.66;;;14.82;50.05
25232;BME280;13176;51.140;6.290;2023-05-03T08:28:29;102109.13;;;15.04;49.57
25232;BME280;13176;51.140;6.290;2023-05-03T08:30:56;102088.09;;;15.06;50.36
25232;BME280;13176;51.140;6.290;2023-05-03T08:33:23;101978.25;;;14.46;50.11
25232;BME280;13176;51.140;6.290;2023-05-03T08:35:49;102058.25;;;15.08;49.34
25232;BME280;13176;51.140;6.290;2023-05-03T08:38:16;102052.84;;;15.23;48.82
25232;BME280;13176;51.140;6.290;2023-05-03T08:40:44;102070.25;;;15.36;48.35
25232;BME280;13176;51.140;6.290;2023-05-03T08:43:14;102084.00;;;15.62;49.29
25232;BME280;13176;51.140;6.290;2023-05-03T08:45:41;102108.47;;;15.67;46.87
25232;BME280;13176;51.140;6.290;2023-05-03T08:48:08;102097.69;;;15.88;48.22
25232;BME280;13176;51.140;6.290;2023-05-03T08:50:34;102086.16;;;15.97;46.91
25232;BME280;13176;51.140;6.290;2023-05-03T08:53:08;102032.91;;;15.75;45.64
25232;BME280;13176;51.140;6.290;2023-05-03T08:55:35;101959.53;;;15.54;46.12
25232;BME280;13176;51.140;6.290;2023-05-03T08:58:05;102058.59;;;16.20;44.35
25232;BME280;13176;51.140;6.290;2023-05-03T09:00:35;102070.88;;;16.21;43.30
25232;BME280;13176;51.140;6.290;2023-05-03T09:03:02;101971.31;;;15.88;44.85
25232;BME280;13176;51.140;6.290;2023-05-03T09:05:30;102065.19;;;16.51;45.96
25232;BME280;13176;51.140;6.290;2023-05-03T09:08:11;102059.91;;;16.51;44.59
25232;BME280;13176;51.140;6.290;2023-05-03T09:10:42;102050.88;;;16.67;43.67
25232;BME280;13176;51.140;6.290;2023-05-03T09:13:09;102058.50;;;16.82;43.55
25232;BME280;13176;51.140;6.290;2023-05-03T09:15:35;101971.19;;;16.50;44.05
25232;BME280;13176;51.140;6.290;2023-05-03T09:18:19;102024.69;;;17.03;45.41
25232;BME280;13176;51.140;6.290;2023-05-03T09:20:47;102072.41;;;17.39;45.21
25232;BME280;13176;51.140;6.290;2023-05-03T09:23:19;102066.84;;;17.51;45.03
25232;BME280;13176;51.140;6.290;2023-05-03T09:25:57;102046.69;;;17.49;44.32
25232;BME280;13176;51.140;6.290;2023-05-03T09:28:24;102012.53;;;17.41;43.80
25232;BME280;13176;51.140;6.290;2023-05-03T09:31:03;102025.69;;;17.44;42.77
25232;BME280;13176;51.140;6.290;2023-05-03T09:33:30;102062.78;;;17.79;43.00
25232;BME280;13176;51.140;6.290;2023-05-03T09:35:58;102043.38;;;17.80;43.53
25232;BME280;13176;51.140;6.290;2023-05-03T09:38:26;102042.59;;;17.75;43.48
25232;BME280;13176;51.140;6.290;2023-05-03T09:40:53;101988.50;;;17.53;43.11
25232;BME280;13176;51.140;6.290;2023-05-03T09:43:19;102029.63;;;18.03;43.18
25232;BME280;13176;51.140;6.290;2023-05-03T09:45:46;101966.69;;;17.85;43.87
25232;BME280;13176;51.140;6.290;2023-05-03T09:48:12;101935.25;;;17.74;42.08
25232;BME280;13176;51.140;6.290;2023-05-03T09:50:39;102035.53;;;18.51;43.09
25232;BME280;13176;51.140;6.290;2023-05-03T09:53:09;102015.56;;;18.40;40.93
25232;BME280;13176;51.140;6.290;2023-05-03T09:55:37;102038.00;;;18.59;41.19
25232;BME280;13176;51.140;6.290;2023-05-03T09:58:05;101976.81;;;18.39;41.75
25232;BME280;13176;51.140;6.290;2023-05-03T10:00:36;102042.44;;;18.92;40.14
25232;BME280;13176;51.140;6.290;2023-05-03T10:03:08;102026.66;;;18.89;41.85
25232;BME280;13176;51.140;6.290;2023-05-03T10:05:48;102043.75;;;19.08;41.09
25232;BME280;13176;51.140;6.290;2023-05-03T10:08:30;102017.63;;;18.96;40.49
25232;BME280;13176;51.140;6.290;2023-05-03T10:10:58;101960.50;;;18.89;39.83
25232;BME280;13176;51.140;6.290;2023-05-03T10:13:25;101920.41;;;18.72;42.54
25232;BME280;13176;51.140;6.290;2023-05-03T10:16:04;102014.13;;;19.27;39.05
25232;BME280;13176;51.140;6.290;2023-05-03T10:18:32;102004.88;;;19.42;39.75
25232;BME280;13176;51.140;6.290;2023-05-03T10:21:12;101959.28;;;19.32;39.63
25232;BME280;13176;51.140;6.290;2023-05-03T10:24:11;102021.97;;;19.89;40.23
25232;BME280;13176;51.140;6.290;2023-05-03T10:26:39;101988.47;;;19.87;40.02
25232;BME280;13176;51.140;6.290;2023-05-03T10:32:03;102029.53;;;20.30;39.24
25232;BME280;13176;51.140;6.290;2023-05-03T10:34:34;102024.53;;;20.47;38.78
25232;BME280;13176;51.140;6.290;2023-05-03T10:37:07;102019.66;;;20.61;37.05
25232;BME280;13176;51.140;6.290;2023-05-03T10:39:35;101992.59;;;20.24;40.21
25232;BME280;13176;51.140;6.290;2023-05-03T10:42:04;101915.63;;;20.01;37.35
25232;BME280;13176;51.140;6.290;2023-05-03T10:44:50;102014.84;;;21.22;36.85
25232;BME280;13176;51.140;6.290;2023-05-03T10:47:19;102012.41;;;21.64;35.96
25232;BME280;13176;51.140;6.290;2023-05-03T10:49:48;101986.13;;;22.00;36.34
25232;BME280;13176;51.140;6.290;2023-05-03T10:55:18;101994.69;;;25.09;30.19
25232;BME280;13176;51.140;6.290;2023-05-03T10:57:47;101973.44;;;26.33;28.03
25232;BME280;13176;51.140;6.290;2023-05-03T11:00:36;101965.25;;;27.92;25.53
25232;BME280;13176;51.140;6.290;2023-05-03T11:05:43;101988.03;;;28.39;23.96
25232;BME280;13176;51.140;6.290;2023-05-03T11:08:14;101962.50;;;28.06;24.70
25232;BME280;13176;51.140;6.290;2023-05-03T11:10:43;101978.38;;;28.37;25.59
25232;BME280;13176;51.140;6.290;2023-05-03T11:13:10;101886.25;;;28.35;24.24
25232;BME280;13176;51.140;6.290;2023-05-03T11:15:37;101977.81;;;28.18;26.49
25232;BME280;13176;51.140;6.290;2023-05-03T11:18:08;101897.00;;;28.08;26.13
25232;BME280;13176;51.140;6.290;2023-05-03T11:20:36;101943.53;;;27.83;26.67
25232;BME280;13176;51.140;6.290;2023-05-03T11:23:04;101962.03;;;27.31;25.69
25232;BME280;13176;51.140;6.290;2023-05-03T11:25:31;101970.06;;;27.73;24.45
25232;BME280;13176;51.140;6.290;2023-05-03T11:28:00;101955.53;;;27.21;24.87
25232;BME280;13176;51.140;6.290;2023-05-03T11:30:28;101965.75;;;26.58;26.89
25232;BME280;13176;51.140;6.290;2023-05-03T11:32:54;101947.41;;;26.21;28.83
25232;BME280;13176;51.140;6.290;2023-05-03T11:35:21;101962.69;;;26.19;27.14
25232;BME280;13176;51.140;6.290;2023-05-03T11:37:52;101967.09;;;26.20;26.79
25232;BME280;13176;51.140;6.290;2023-05-03T11:40:19;101963.66;;;26.76;26.86
25232;BME280;13176;51.140;6.290;2023-05-03T11:42:59;101953.38;;;26.40;27.95
25232;BME280;13176;51.140;6.290;2023-05-03T11:45:30;101951.34;;;25.52;25.46
25232;BME280;13176;51.140;6.290;2023-05-03T11:47:58;101881.34;;;26.06;26.50
25232;BME280;13176;51.140;6.290;2023-05-03T11:50:53;101935.91;;;26.19;25.52
25232;BME280;13176;51.140;6.290;2023-05-03T11:53:22;101924.75;;;26.26;26.66
25232;BME280;13176;51.140;6.290;2023-05-03T11:55:51;101835.28;;;25.70;27.32
25232;BME280;13176;51.140;6.290;2023-05-03T11:58:23;101944.09;;;26.31;28.06
25232;BME280;13176;51.140;6.290;2023-05-03T12:00:52;101932.59;;;26.59;25.45
25232;BME280;13176;51.140;6.290;2023-05-03T12:03:20;101851.69;;;26.24;26.83
25232;BME280;13176;51.140;6.290;2023-05-03T12:05:52;101907.50;;;26.75;25.68
25232;BME280;13176;51.140;6.290;2023-05-03T12:08:20;101885.34;;;26.44;24.69
25232;BME280;13176;51.140;6.290;2023-05-03T12:10:50;101873.03;;;25.81;29.26
25232;BME280;13176;51.140;6.290;2023-05-03T12:13:30;101924.19;;;26.06;27.30
25232;BME280;13176;51.140;6.290;2023-05-03T12:16:00;101920.47;;;25.62;27.34
25232;BME280;13176;51.140;6.290;2023-05-03T12:18:45;101937.22;;;26.12;25.91
25232;BME280;13176;51.140;6.290;2023-05-03T12:21:13;101908.97;;;25.60;29.04
25232;BME280;13176;51.140;6.290;2023-05-03T12:23:44;101876.28;;;25.24;28.69
25232;BME280;13176;51.140;6.290;2023-05-03T12:26:11;101914.59;;;25.40;26.72
25232;BME280;13176;51.140;6.290;2023-05-03T12:28:39;101915.63;;;25.53;25.83
25232;BME280;13176;51.140;6.290;2023-05-03T12:31:06;101841.69;;;25.52;25.06
25232;BME280;13176;51.140;6.290;2023-05-03T12:33:33;101897.84;;;26.14;26.79
25232;BME280;13176;51.140;6.290;2023-05-03T12:36:04;101839.59;;;25.57;25.95
25232;BME280;13176;51.140;6.290;2023-05-03T12:38:35;101912.25;;;26.41;26.30
25232;BME280;13176;51.140;6.290;2023-05-03T12:41:03;101881.47;;;25.58;26.71
25232;BME280;13176;51.140;6.290;2023-05-03T12:43:34;101888.78;;;26.01;29.39
25232;BME280;13176;51.140;6.290;2023-05-03T12:46:01;101845.41;;;26.10;27.91
25232;BME280;13176;51.140;6.290;2023-05-03T12:48:51;101882.69;;;26.58;26.60
25232;BME280;13176;51.140;6.290;2023-05-03T12:51:19;101870.50;;;26.23;27.22
25232;BME280;13176;51.140;6.290;2023-05-03T12:53:51;101872.84;;;26.43;26.64
25232;BME280;13176;51.140;6.290;2023-05-03T12:56:20;101785.50;;;24.90;25.42
25232;BME280;13176;51.140;6.290;2023-05-03T12:58:50;101862.13;;;25.22;26.62
25232;BME280;13176;51.140;6.290;2023-05-03T13:01:37;101879.22;;;25.97;27.29
25232;BME280;13176;51.140;6.290;2023-05-03T13:04:23;101842.63;;;25.51;27.25
25232;BME280;13176;51.140;6.290;2023-05-03T13:06:54;101875.03;;;25.14;26.99
25232;BME280;13176;51.140;6.290;2023-05-03T13:09:25;101803.28;;;25.53;27.44